createdAt,value
2022-12-18T00:01:30.319Z,78.88
2022-12-18T00:03:57.725Z,79.39
2022-12-18T00:06:28.245Z,79.40
2022-12-18T00:08:57.772Z,79.53
2022-12-18T00:11:29.208Z,80.05
2022-12-18T00:13:58.611Z,80.09
2022-12-18T00:16:28.467Z,80.00
2022-12-18T00:19:00.962Z,79.96
2022-12-18T00:21:29.377Z,79.97
2022-12-18T00:23:56.219Z,80.00
2022-12-18T00:26:30.060Z,80.03
2022-12-18T00:29:05.802Z,80.13
2022-12-18T00:31:33.199Z,80.12
2022-12-18T00:34:02.232Z,80.00
2022-12-18T00:36:34.315Z,79.99
2022-12-18T00:39:04.365Z,79.94
2022-12-18T00:41:49.994Z,79.92
2022-12-18T00:44:19.006Z,79.90
2022-12-18T00:46:47.145Z,79.91
2022-12-18T00:49:15.212Z,80.04
2022-12-18T00:51:42.300Z,80.12
2022-12-18T00:54:09.569Z,80.22
2022-12-18T00:56:48.347Z,80.30
2022-12-18T00:59:16.915Z,80.25
2022-12-18T01:01:43.849Z,80.38
2022-12-18T01:04:10.738Z,80.38
2022-12-18T01:06:37.736Z,80.30
2022-12-18T01:09:04.673Z,80.24
2022-12-18T01:11:31.836Z,80.21
2022-12-18T01:14:01.666Z,80.31
2022-12-18T01:16:28.299Z,80.30
2022-12-18T01:18:55.843Z,80.36
2022-12-18T01:21:24.330Z,80.29
2022-12-18T01:23:56.567Z,80.20
2022-12-18T01:26:25.171Z,80.02
2022-12-18T01:28:52.292Z,79.99
2022-12-18T01:31:33.670Z,79.92
2022-12-18T01:34:03.761Z,79.76
2022-12-18T01:36:37.193Z,79.58
2022-12-18T01:39:12.530Z,79.55
2022-12-18T01:42:02.221Z,79.49
2022-12-18T01:44:56.757Z,79.64
2022-12-18T01:47:41.514Z,79.86
2022-12-18T01:50:18.714Z,79.85
2022-12-18T01:52:59.657Z,79.79
2022-12-18T01:55:31.031Z,79.84
2022-12-18T01:58:00.634Z,79.85
2022-12-18T02:00:27.953Z,79.80
2022-12-18T02:02:54.773Z,79.75
2022-12-18T02:05:55.607Z,80.04
2022-12-18T02:08:49.789Z,80.11
2022-12-18T02:11:28.577Z,80.30
2022-12-18T02:14:27.167Z,80.32
2022-12-18T02:17:32.088Z,80.38
2022-12-18T02:20:22.911Z,80.39
2022-12-18T02:23:30.576Z,80.40
2022-12-18T02:26:21.773Z,80.40
2022-12-18T02:28:56.977Z,80.37
2022-12-18T02:31:31.975Z,80.35
2022-12-18T02:34:04.025Z,80.49
2022-12-18T02:36:35.515Z,80.53
2022-12-18T02:39:03.781Z,80.60
2022-12-18T02:41:32.678Z,80.88
2022-12-18T02:44:07.325Z,80.90
2022-12-18T02:46:40.217Z,80.85
2022-12-18T02:49:37.932Z,80.78
2022-12-18T02:52:13.710Z,80.76
2022-12-18T02:55:07.483Z,80.82
2022-12-18T02:57:44.027Z,80.91
2022-12-18T03:00:23.186Z,80.85
2022-12-18T03:02:58.081Z,80.74
2022-12-18T03:05:39.886Z,80.74
2022-12-18T03:08:15.768Z,80.70
2022-12-18T03:10:55.369Z,80.56
2022-12-18T03:13:32.193Z,80.56
2022-12-18T03:16:00.142Z,80.57
2022-12-18T03:18:36.638Z,80.89
2022-12-18T03:21:07.702Z,80.90
2022-12-18T03:23:44.171Z,80.75
2022-12-18T03:26:16.323Z,80.89
2022-12-18T03:28:53.632Z,80.73
2022-12-18T03:31:24.045Z,80.78
2022-12-18T03:34:02.873Z,80.94
2022-12-18T03:36:37.305Z,80.86
2022-12-18T03:39:04.502Z,80.93
2022-12-18T03:41:44.325Z,80.90
2022-12-18T03:44:58.926Z,80.88
2022-12-18T03:47:40.708Z,80.81
2022-12-18T03:50:17.455Z,80.97
2022-12-18T03:52:54.577Z,81.00
2022-12-18T03:55:24.195Z,80.90
2022-12-18T03:57:56.494Z,80.82
2022-12-18T04:00:23.578Z,80.71
2022-12-18T04:02:57.999Z,80.66
2022-12-18T04:05:32.953Z,80.56
2022-12-18T04:08:02.025Z,80.46
2022-12-18T04:10:28.856Z,80.39
2022-12-18T04:12:58.663Z,80.39
2022-12-18T04:15:25.619Z,80.21
2022-12-18T04:17:52.847Z,80.24
2022-12-18T04:20:21.890Z,80.28
2022-12-18T04:22:49.018Z,80.19
2022-12-18T04:25:15.837Z,80.29
2022-12-18T04:27:53.390Z,80.17
2022-12-18T04:30:20.001Z,79.96
2022-12-18T04:32:52.020Z,79.83
2022-12-18T04:35:20.780Z,79.95
2022-12-18T04:37:47.361Z,80.02
2022-12-18T04:40:14.559Z,79.99
2022-12-18T04:42:43.495Z,80.09
2022-12-18T04:45:10.558Z,80.17
2022-12-18T04:47:37.241Z,80.20
2022-12-18T04:50:04.736Z,80.03
2022-12-18T04:52:32.640Z,79.80
2022-12-18T04:54:59.191Z,79.79
2022-12-18T04:57:25.781Z,79.74
2022-12-18T04:59:52.361Z,79.69
2022-12-18T05:02:20.373Z,79.68
2022-12-18T05:04:47.002Z,79.53
2022-12-18T05:07:13.691Z,79.71
2022-12-18T05:09:40.328Z,79.82
2022-12-18T05:12:07.088Z,79.90
2022-12-18T05:14:33.597Z,79.94
2022-12-18T05:17:01.260Z,79.90
2022-12-18T05:19:28.053Z,79.81
2022-12-18T05:21:54.616Z,79.41
2022-12-18T05:24:21.250Z,79.53
2022-12-18T05:26:47.834Z,79.68
2022-12-18T05:29:14.395Z,79.72
2022-12-18T05:31:41.637Z,79.62
2022-12-18T05:34:09.648Z,79.54
2022-12-18T05:36:37.638Z,79.46
2022-12-18T05:39:04.415Z,79.41
2022-12-18T05:41:31.198Z,79.34
2022-12-18T05:43:57.787Z,79.47
2022-12-18T05:46:25.330Z,79.48
2022-12-18T05:48:52.550Z,79.26
2022-12-18T05:51:22.177Z,79.11
2022-12-18T05:53:49.840Z,79.03
2022-12-18T05:56:22.539Z,79.02
2022-12-18T05:58:54.184Z,79.04
2022-12-18T06:01:26.031Z,79.03
2022-12-18T06:03:53.246Z,79.00
2022-12-18T06:06:26.689Z,78.98
2022-12-18T06:08:55.188Z,78.93
2022-12-18T06:11:25.759Z,78.90
2022-12-18T06:13:58.588Z,78.93
2022-12-18T06:16:27.260Z,79.00
2022-12-18T06:18:54.612Z,78.86
2022-12-18T06:21:21.212Z,78.83
2022-12-18T06:23:47.812Z,78.93
2022-12-18T06:26:15.620Z,78.98
2022-12-18T06:28:42.962Z,79.05
2022-12-18T06:31:10.598Z,78.98
2022-12-18T06:33:38.692Z,79.07
2022-12-18T06:36:12.970Z,79.09
2022-12-18T06:38:43.371Z,79.23
2022-12-18T06:41:16.713Z,79.13
2022-12-18T06:43:44.948Z,79.15
2022-12-18T06:46:13.125Z,79.07
2022-12-18T06:48:41.209Z,78.92
2022-12-18T06:51:07.859Z,78.92
2022-12-18T06:53:34.930Z,78.69
2022-12-18T06:56:10.398Z,78.67
2022-12-18T06:58:39.491Z,78.65
2022-12-18T07:01:09.918Z,78.45
2022-12-18T07:03:38.335Z,78.52
2022-12-18T07:06:05.788Z,78.76
2022-12-18T07:08:33.649Z,78.72
2022-12-18T07:11:00.319Z,78.81
2022-12-18T07:13:27.757Z,78.67
2022-12-18T07:15:54.464Z,78.41
2022-12-18T07:18:21.011Z,78.34
2022-12-18T07:20:47.813Z,78.50
2022-12-18T07:23:15.585Z,78.33
2022-12-18T07:25:42.466Z,78.29
2022-12-18T07:28:12.886Z,78.23
2022-12-18T07:30:43.777Z,78.23
2022-12-18T07:33:10.346Z,78.20
2022-12-18T07:35:37.070Z,78.20
2022-12-18T07:38:03.720Z,78.23
2022-12-18T07:40:30.331Z,78.25
2022-12-18T07:42:56.929Z,78.01
2022-12-18T07:45:23.535Z,77.76
2022-12-18T07:47:50.114Z,77.79
2022-12-18T07:50:16.749Z,78.08
2022-12-18T07:52:43.481Z,78.21
2022-12-18T07:55:10.094Z,78.25
2022-12-18T07:57:56.371Z,78.18
2022-12-18T08:00:23.853Z,78.11
2022-12-18T08:02:50.783Z,78.19
2022-12-18T08:05:17.869Z,78.20
2022-12-18T08:07:44.395Z,78.20
2022-12-18T08:10:11.097Z,78.00
2022-12-18T08:12:37.630Z,78.01
2022-12-18T08:15:04.884Z,78.04
2022-12-18T08:17:32.927Z,78.12
2022-12-18T08:19:59.625Z,78.89
2022-12-18T08:22:26.366Z,79.47
2022-12-18T08:24:53.037Z,78.55
2022-12-18T08:27:35.224Z,78.28
2022-12-18T08:30:02.641Z,77.91
2022-12-18T08:32:29.620Z,77.63
2022-12-18T08:34:56.328Z,77.40
2022-12-18T08:37:22.965Z,77.36
2022-12-18T08:39:49.702Z,77.31
2022-12-18T08:42:34.979Z,77.44
2022-12-18T08:45:02.144Z,77.65
2022-12-18T08:47:28.777Z,77.42
2022-12-18T08:49:55.793Z,77.33
2022-12-18T08:52:22.890Z,77.30
2022-12-18T08:54:49.619Z,77.24
2022-12-18T08:57:17.084Z,77.05
2022-12-18T08:59:43.668Z,76.95
2022-12-18T09:02:12.571Z,77.04
2022-12-18T09:04:40.849Z,77.18
2022-12-18T09:07:07.643Z,77.01
2022-12-18T09:09:34.215Z,76.94
2022-12-18T09:12:00.782Z,76.84
2022-12-18T09:14:27.343Z,76.79
2022-12-18T09:16:54.095Z,76.57
2022-12-18T09:19:20.731Z,76.48
2022-12-18T09:21:48.505Z,76.29
2022-12-18T09:24:16.521Z,75.93
2022-12-18T09:26:47.007Z,76.86
2022-12-18T09:29:16.403Z,78.91
2022-12-18T09:31:45.615Z,76.33
2022-12-18T09:34:12.162Z,75.81
2022-12-18T09:36:38.993Z,75.86
2022-12-18T09:39:08.619Z,75.94
2022-12-18T09:41:46.879Z,75.69
2022-12-18T09:44:22.328Z,76.11
2022-12-18T09:47:04.026Z,75.91
2022-12-18T09:49:34.513Z,75.74
2022-12-18T09:52:41.160Z,75.41
2022-12-18T09:55:36.801Z,75.39
2022-12-18T09:58:45.229Z,75.31
2022-12-18T10:01:15.940Z,74.94
2022-12-18T10:03:45.170Z,74.86
2022-12-18T10:06:49.068Z,74.59
2022-12-18T10:09:38.747Z,74.54
2022-12-18T10:13:02.521Z,74.41
2022-12-18T10:16:03.935Z,74.40
2022-12-18T10:19:19.558Z,74.17
2022-12-18T10:22:25.879Z,73.95
2022-12-18T10:25:08.169Z,74.61
2022-12-18T10:27:35.669Z,74.50
2022-12-18T10:30:14.327Z,74.43
2022-12-18T10:32:41.010Z,74.35
2022-12-18T10:35:25.143Z,74.13
2022-12-18T10:38:05.619Z,74.38
2022-12-18T10:40:32.811Z,74.12
2022-12-18T10:43:13.687Z,74.18
2022-12-18T10:45:40.860Z,73.78
2022-12-18T10:48:22.162Z,73.55
2022-12-18T10:53:43.667Z,73.85
2022-12-18T10:56:10.699Z,73.74
2022-12-18T10:58:40.011Z,73.65
2022-12-18T11:01:18.377Z,73.34
2022-12-18T11:03:51.211Z,73.63
2022-12-18T11:06:25.524Z,73.48
2022-12-18T11:09:23.127Z,74.01
2022-12-18T11:12:00.229Z,74.56
2022-12-18T11:14:46.558Z,74.33
2022-12-18T11:17:36.525Z,74.24
2022-12-18T11:20:32.758Z,74.35
2022-12-18T11:23:13.161Z,74.56
2022-12-18T11:25:40.655Z,74.82
2022-12-18T11:28:28.234Z,74.92
2022-12-18T11:31:16.053Z,74.40
2022-12-18T11:34:19.827Z,73.87
2022-12-18T11:36:46.733Z,73.24
2022-12-18T11:39:21.106Z,72.98
2022-12-18T11:42:11.267Z,72.81
2022-12-18T11:44:51.658Z,72.60
2022-12-18T11:47:30.665Z,72.52
2022-12-18T11:50:02.682Z,72.43
2022-12-18T11:52:40.602Z,72.43
2022-12-18T11:55:41.211Z,72.35
2022-12-18T11:58:31.569Z,72.33
2022-12-18T12:01:43.975Z,72.22
2022-12-18T12:04:42.409Z,72.04
2022-12-18T12:07:43.648Z,72.13
2022-12-18T12:10:43.090Z,71.97
2022-12-18T12:13:14.944Z,71.79
2022-12-18T12:16:13.093Z,71.52
2022-12-18T12:19:23.202Z,71.91
2022-12-18T12:22:20.274Z,72.51
2022-12-18T12:25:05.657Z,72.73
2022-12-18T12:28:12.100Z,72.80
2022-12-18T12:31:07.475Z,72.30
2022-12-18T12:34:08.068Z,72.23
2022-12-18T12:37:08.478Z,72.39
2022-12-18T12:39:40.714Z,71.94
2022-12-18T12:42:43.473Z,71.78
2022-12-18T12:45:22.177Z,71.87
2022-12-18T12:47:51.426Z,71.80
2022-12-18T12:50:20.364Z,71.88
2022-12-18T12:52:53.341Z,72.03
2022-12-18T12:55:26.834Z,71.97
2022-12-18T12:58:15.900Z,71.53
2022-12-18T13:01:19.976Z,71.54
2022-12-18T13:04:08.225Z,71.51
2022-12-18T13:06:53.887Z,71.52
2022-12-18T13:09:20.516Z,71.50
2022-12-18T13:12:07.124Z,71.62
2022-12-18T13:14:39.039Z,71.49
2022-12-18T13:17:22.055Z,71.46
2022-12-18T13:19:57.602Z,71.54
2022-12-18T13:22:44.279Z,71.61
2022-12-18T13:25:38.668Z,72.18
2022-12-18T13:28:17.881Z,71.94
2022-12-18T13:30:47.387Z,71.81
2022-12-18T13:33:23.150Z,71.82
2022-12-18T13:35:52.575Z,72.05
2022-12-18T13:38:33.869Z,72.06
2022-12-18T13:41:15.990Z,72.08
2022-12-18T13:43:49.650Z,72.45
2022-12-18T13:46:31.757Z,72.89
2022-12-18T13:49:29.710Z,72.60
2022-12-18T13:51:57.497Z,72.55
2022-12-18T13:54:52.349Z,72.51
2022-12-18T13:57:41.727Z,73.07
2022-12-18T14:00:25.492Z,73.05
2022-12-18T14:02:52.833Z,72.74
2022-12-18T14:05:28.153Z,72.73
2022-12-18T14:07:55.974Z,72.80
2022-12-18T14:10:45.556Z,72.92
2022-12-18T14:13:15.122Z,73.05
2022-12-18T14:15:45.541Z,73.29
2022-12-18T14:18:35.436Z,73.47
2022-12-18T14:21:05.290Z,73.43
2022-12-18T14:23:35.054Z,73.46
2022-12-18T14:26:29.943Z,73.72
2022-12-18T14:29:22.901Z,73.60
2022-12-18T14:32:29.254Z,73.69
2022-12-18T14:34:56.255Z,73.87
2022-12-18T14:37:26.271Z,74.34
2022-12-18T14:40:11.251Z,74.58
2022-12-18T14:42:38.526Z,74.91
2022-12-18T14:45:42.257Z,74.75
2022-12-18T14:48:13.804Z,74.94
2022-12-18T14:50:42.728Z,75.26
2022-12-18T14:53:32.442Z,75.43
2022-12-18T14:55:59.107Z,75.38
2022-12-18T14:58:26.437Z,75.20
2022-12-18T15:00:53.958Z,75.11
2022-12-18T15:03:22.686Z,74.98
2022-12-18T15:05:50.048Z,75.17
2022-12-18T15:08:38.036Z,75.31
2022-12-18T15:11:33.832Z,75.31
2022-12-18T15:14:01.677Z,75.18
2022-12-18T15:16:28.445Z,75.28
2022-12-18T15:18:55.099Z,75.24
2022-12-18T15:21:22.279Z,75.40
2022-12-18T15:23:52.295Z,75.30
2022-12-18T15:26:22.018Z,75.27
2022-12-18T15:28:59.512Z,75.34
2022-12-18T15:31:32.395Z,75.52
2022-12-18T15:34:00.280Z,75.60
2022-12-18T15:36:31.086Z,75.70
2022-12-18T15:39:04.794Z,75.78
2022-12-18T15:41:35.755Z,75.75
2022-12-18T15:44:04.788Z,75.76
2022-12-18T15:46:32.025Z,75.80
2022-12-18T15:49:02.296Z,75.99
2022-12-18T15:51:34.672Z,76.27
2022-12-18T15:54:05.121Z,76.35
2022-12-18T15:56:51.555Z,76.39
2022-12-18T15:59:21.569Z,76.41
2022-12-18T16:01:51.792Z,76.39
2022-12-18T16:04:21.678Z,76.31
2022-12-18T16:07:14.967Z,76.17
2022-12-18T16:09:39.622Z,76.05
2022-12-18T16:12:15.856Z,75.82
2022-12-18T16:14:42.529Z,75.87
2022-12-18T16:17:12.300Z,75.67
2022-12-18T16:19:39.492Z,75.79
2022-12-18T16:22:24.781Z,75.89
2022-12-18T16:24:53.574Z,76.47
2022-12-18T16:27:21.632Z,76.61
2022-12-18T16:29:48.360Z,76.69
2022-12-18T16:32:21.559Z,76.60
2022-12-18T16:34:48.314Z,76.86
2022-12-18T16:37:16.835Z,76.84
2022-12-18T16:39:43.965Z,76.75
2022-12-18T16:42:21.027Z,76.62
2022-12-18T16:44:50.181Z,76.52
2022-12-18T16:47:17.975Z,76.45
2022-12-18T16:49:46.059Z,76.51
2022-12-18T16:52:13.695Z,76.52
2022-12-18T16:54:40.325Z,76.39
2022-12-18T16:57:07.116Z,76.47
2022-12-18T16:59:33.907Z,76.62
2022-12-18T17:02:00.933Z,76.64
2022-12-18T17:04:27.654Z,76.62
2022-12-18T17:06:54.253Z,76.75
2022-12-18T17:09:28.442Z,76.73
2022-12-18T17:11:55.180Z,76.90
2022-12-18T17:14:24.903Z,77.08
2022-12-18T17:17:19.852Z,77.13
2022-12-18T17:19:40.347Z,77.22
2022-12-18T17:22:08.305Z,77.24
2022-12-18T17:24:35.781Z,77.28
2022-12-18T17:27:04.978Z,77.35
2022-12-18T17:29:31.703Z,77.29
2022-12-18T17:32:00.172Z,77.20
2022-12-18T17:34:28.034Z,77.10
2022-12-18T17:36:55.162Z,77.24
2022-12-18T17:39:21.820Z,77.08
2022-12-18T17:41:49.711Z,77.16
2022-12-18T17:44:16.843Z,77.30
2022-12-18T17:46:44.037Z,77.49
2022-12-18T17:49:11.775Z,77.44
2022-12-18T17:51:38.994Z,77.46
2022-12-18T17:54:06.383Z,77.50
2022-12-18T17:56:33.300Z,77.39
2022-12-18T17:59:00.205Z,77.20
2022-12-18T18:01:27.811Z,77.26
2022-12-18T18:03:57.995Z,77.41
2022-12-18T18:06:24.880Z,77.40
2022-12-18T18:08:52.345Z,77.40
2022-12-18T18:11:40.996Z,77.57
2022-12-18T18:14:19.006Z,77.51
2022-12-18T18:16:52.386Z,77.49
2022-12-18T18:19:24.360Z,77.85
2022-12-18T18:21:53.569Z,78.10
2022-12-18T18:24:23.788Z,77.91
2022-12-18T18:26:50.825Z,77.74
2022-12-18T18:29:21.697Z,77.56
2022-12-18T18:31:48.791Z,77.47
2022-12-18T18:34:18.797Z,77.34
2022-12-18T18:36:46.365Z,77.25
2022-12-18T18:39:13.974Z,77.29
2022-12-18T18:41:41.172Z,77.36
2022-12-18T18:44:11.847Z,77.48
2022-12-18T18:46:38.448Z,77.67
2022-12-18T18:49:05.727Z,77.73
2022-12-18T18:51:35.303Z,77.70
2022-12-18T18:54:02.326Z,77.70
2022-12-18T18:59:16.013Z,77.96
2022-12-18T19:01:43.111Z,77.88
2022-12-18T19:04:10.320Z,77.54
2022-12-18T19:06:36.981Z,77.53
2022-12-18T19:09:06.676Z,77.68
2022-12-18T19:11:52.533Z,77.70
2022-12-18T19:14:19.384Z,77.89
2022-12-18T19:16:46.080Z,77.80
2022-12-18T19:19:13.327Z,77.87
2022-12-18T19:21:41.025Z,77.84
2022-12-18T19:24:09.276Z,77.97
2022-12-18T19:26:37.713Z,78.00
2022-12-18T19:29:10.763Z,77.94
2022-12-18T19:31:38.003Z,78.20
2022-12-18T19:34:07.069Z,78.40
2022-12-18T19:36:40.135Z,78.43
2022-12-18T19:39:16.065Z,78.39
2022-12-18T19:41:43.404Z,78.47
2022-12-18T19:44:17.191Z,78.58
2022-12-18T19:46:46.309Z,78.51
2022-12-18T19:49:18.164Z,78.36
2022-12-18T19:51:45.819Z,78.30
2022-12-18T19:54:17.114Z,78.13
2022-12-18T19:56:45.305Z,77.63
2022-12-18T19:59:12.330Z,77.42
2022-12-18T20:01:39.104Z,77.20
2022-12-18T20:04:06.157Z,77.21
2022-12-18T20:06:48.239Z,77.10
2022-12-18T20:09:16.039Z,77.10
2022-12-18T20:11:43.414Z,77.07
2022-12-18T20:14:12.001Z,77.05
2022-12-18T20:16:39.141Z,77.11
2022-12-18T20:19:06.081Z,77.17
2022-12-18T20:21:33.319Z,77.20
2022-12-18T20:24:01.252Z,77.29
2022-12-18T20:26:28.497Z,77.31
2022-12-18T20:28:55.911Z,77.19
2022-12-18T20:31:23.847Z,77.02
2022-12-18T20:33:52.186Z,77.04
2022-12-18T20:36:24.641Z,76.98
2022-12-18T20:38:59.261Z,77.04
2022-12-18T20:41:37.332Z,77.16
2022-12-18T20:44:23.173Z,77.22
2022-12-18T20:46:57.136Z,77.23
2022-12-18T20:49:26.648Z,77.13
2022-12-18T20:51:57.166Z,77.06
2022-12-18T20:54:27.194Z,76.94
2022-12-18T20:56:54.127Z,76.93
2022-12-18T20:59:22.926Z,76.96
2022-12-18T21:01:50.349Z,77.01
2022-12-18T21:04:18.968Z,77.48
2022-12-18T21:06:54.207Z,77.77
2022-12-18T21:09:37.587Z,77.78
2022-12-18T21:12:32.927Z,77.68
2022-12-18T21:15:06.109Z,77.47
2022-12-18T21:17:34.592Z,77.48
2022-12-18T21:20:13.320Z,77.53
2022-12-18T21:22:44.559Z,77.40
2022-12-18T21:25:11.211Z,77.41
2022-12-18T21:27:37.786Z,77.37
2022-12-18T21:30:05.067Z,77.42
2022-12-18T21:32:33.615Z,77.52
2022-12-18T21:35:01.006Z,77.61
2022-12-18T21:37:27.724Z,77.57
2022-12-18T21:39:54.343Z,77.42
2022-12-18T21:42:39.606Z,77.51
2022-12-18T21:45:06.949Z,77.56
2022-12-18T21:47:33.680Z,77.33
2022-12-18T21:50:00.219Z,77.14
2022-12-18T21:52:31.558Z,77.03
2022-12-18T21:55:08.575Z,76.99
2022-12-18T21:57:39.965Z,76.93
2022-12-18T22:00:18.452Z,77.05
2022-12-18T22:02:46.717Z,77.05
2022-12-18T22:05:13.660Z,76.99
2022-12-18T22:07:40.447Z,76.99
2022-12-18T22:10:07.840Z,77.00
2022-12-18T22:12:43.812Z,77.01
2022-12-18T22:15:13.177Z,77.07
2022-12-18T22:17:47.972Z,77.16
2022-12-18T22:20:16.096Z,77.21
2022-12-18T22:22:42.781Z,77.28
2022-12-18T22:25:10.742Z,77.30
2022-12-18T22:27:37.890Z,77.32
2022-12-18T22:30:06.080Z,77.44
2022-12-18T22:32:35.178Z,77.46
2022-12-18T22:35:10.427Z,77.43
2022-12-18T22:37:40.935Z,77.46
2022-12-18T22:40:09.967Z,77.48
2022-12-18T22:42:39.420Z,77.50
2022-12-18T22:45:06.785Z,77.56
2022-12-18T22:47:33.493Z,77.64
2022-12-18T22:50:00.187Z,77.76
2022-12-18T22:52:26.699Z,77.74
2022-12-18T22:54:54.491Z,77.56
2022-12-18T22:57:23.297Z,77.56
2022-12-18T22:59:51.600Z,77.53
2022-12-18T23:02:18.874Z,77.56
2022-12-18T23:04:45.945Z,77.50
2022-12-18T23:07:12.715Z,77.58
2022-12-18T23:09:42.846Z,77.50
2022-12-18T23:12:19.162Z,77.49
2022-12-18T23:14:47.231Z,77.42
2022-12-18T23:17:14.028Z,77.38
2022-12-18T23:19:48.557Z,77.20
2022-12-18T23:22:15.538Z,76.97
2022-12-18T23:24:42.106Z,77.00
2022-12-18T23:27:11.740Z,77.11
2022-12-18T23:29:40.558Z,77.18
2022-12-18T23:32:08.137Z,77.05
2022-12-18T23:34:34.885Z,77.07
2022-12-18T23:37:03.775Z,77.01
2022-12-18T23:39:30.606Z,76.89
2022-12-18T23:42:00.931Z,76.90
2022-12-18T23:44:28.027Z,76.96
2022-12-18T23:46:55.163Z,77.30
2022-12-18T23:49:22.335Z,77.28
2022-12-18T23:51:49.462Z,77.30
2022-12-18T23:54:16.012Z,77.25
2022-12-18T23:56:42.596Z,77.20
2022-12-18T23:59:09.476Z,77.25
